createdAt,value
2022-12-25T00:00:35.605Z,79.56
2022-12-25T00:03:02.549Z,79.68
2022-12-25T00:05:29.362Z,79.58
2022-12-25T00:07:56.119Z,79.52
2022-12-25T00:10:22.967Z,79.53
2022-12-25T00:12:49.926Z,79.61
2022-12-25T00:15:16.926Z,79.43
2022-12-25T00:17:43.874Z,79.61
2022-12-25T00:20:10.656Z,79.62
2022-12-25T00:22:37.652Z,79.60
2022-12-25T00:25:04.905Z,79.51
2022-12-25T00:27:34.001Z,79.56
2022-12-25T00:30:01.860Z,79.51
2022-12-25T00:32:28.514Z,79.30
2022-12-25T00:34:55.127Z,79.37
2022-12-25T00:37:21.887Z,79.42
2022-12-25T00:39:49.873Z,79.44
2022-12-25T00:42:19.504Z,79.35
2022-12-25T00:44:48.335Z,79.27
2022-12-25T00:47:16.717Z,79.26
2022-12-25T00:49:43.937Z,79.24
2022-12-25T00:52:10.756Z,79.07
2022-12-25T00:54:37.759Z,79.00
2022-12-25T00:57:04.670Z,78.89
2022-12-25T00:59:32.944Z,78.94
2022-12-25T01:02:18.711Z,78.87
2022-12-25T01:04:45.609Z,78.75
2022-12-25T01:07:12.538Z,78.59
2022-12-25T01:09:58.176Z,78.44
2022-12-25T01:12:24.953Z,78.24
2022-12-25T01:14:51.490Z,78.47
2022-12-25T01:17:18.467Z,78.39
2022-12-25T01:19:45.290Z,78.15
2022-12-25T01:22:11.955Z,78.06
2022-12-25T01:24:38.736Z,77.96
2022-12-25T01:27:05.367Z,77.97
2022-12-25T01:29:31.983Z,78.39
2022-12-25T01:31:58.769Z,78.29
2022-12-25T01:34:25.493Z,78.33
2022-12-25T01:36:52.234Z,78.45
2022-12-25T01:39:18.963Z,78.39
2022-12-25T01:41:45.675Z,78.18
2022-12-25T01:44:35.078Z,78.53
2022-12-25T01:47:05.642Z,78.66
2022-12-25T01:49:36.557Z,78.65
2022-12-25T01:52:05.735Z,78.59
2022-12-25T01:54:38.456Z,78.53
2022-12-25T01:57:09.044Z,78.48
2022-12-25T01:59:35.845Z,78.55
2022-12-25T02:02:03.734Z,78.48
2022-12-25T02:04:39.445Z,78.43
2022-12-25T02:07:14.176Z,78.55
2022-12-25T02:09:41.753Z,78.67
2022-12-25T02:12:12.308Z,78.72
2022-12-25T02:14:39.049Z,78.81
2022-12-25T02:17:08.652Z,78.69
2022-12-25T02:19:47.522Z,78.45
2022-12-25T02:22:14.056Z,78.51
2022-12-25T02:24:50.389Z,78.27
2022-12-25T02:27:45.660Z,78.41
2022-12-25T02:30:13.212Z,78.59
2022-12-25T02:33:20.173Z,78.57
2022-12-25T02:35:53.100Z,78.69
2022-12-25T02:38:31.400Z,78.56
2022-12-25T02:41:02.478Z,78.75
2022-12-25T02:43:55.750Z,78.69
2022-12-25T02:46:43.242Z,78.50
2022-12-25T02:49:34.349Z,78.50
2022-12-25T02:52:31.055Z,78.46
2022-12-25T02:55:28.635Z,78.37
2022-12-25T02:58:18.365Z,78.34
2022-12-25T03:01:07.056Z,78.39
2022-12-25T03:03:56.782Z,78.57
2022-12-25T03:06:45.808Z,78.40
2022-12-25T03:09:41.213Z,78.41
2022-12-25T03:12:37.680Z,77.99
2022-12-25T03:15:24.824Z,77.90
2022-12-25T03:17:51.758Z,77.69
2022-12-25T03:20:37.289Z,77.54
2022-12-25T03:23:27.308Z,77.56
2022-12-25T03:26:12.743Z,77.27
2022-12-25T03:28:39.370Z,77.63
2022-12-25T03:31:18.479Z,77.15
2022-12-25T03:34:32.693Z,76.95
2022-12-25T03:37:23.282Z,77.05
2022-12-25T03:40:49.553Z,77.13
2022-12-25T03:44:10.528Z,77.10
2022-12-25T03:47:04.294Z,76.92
2022-12-25T03:50:04.290Z,77.12
2022-12-25T03:52:50.372Z,76.97
2022-12-25T03:55:38.063Z,77.15
2022-12-25T03:58:23.456Z,76.92
2022-12-25T04:01:08.955Z,77.07
2022-12-25T04:03:54.215Z,77.36
2022-12-25T04:06:39.269Z,77.46
2022-12-25T04:09:24.596Z,77.59
2022-12-25T04:12:29.723Z,77.50
2022-12-25T04:15:15.180Z,77.22
2022-12-25T04:18:00.476Z,77.37
2022-12-25T04:20:45.528Z,77.35
2022-12-25T04:23:30.749Z,77.54
2022-12-25T04:26:17.365Z,77.58
2022-12-25T04:29:02.628Z,77.61
2022-12-25T04:31:47.956Z,77.40
2022-12-25T04:34:33.680Z,77.59
2022-12-25T04:37:00.397Z,77.67
2022-12-25T04:39:27.014Z,77.65
2022-12-25T04:41:53.939Z,77.76
2022-12-25T04:44:20.510Z,77.77
2022-12-25T04:46:47.207Z,77.70
2022-12-25T04:49:14.122Z,77.62
2022-12-25T04:51:40.811Z,77.75
2022-12-25T04:54:07.460Z,77.80
2022-12-25T04:56:35.660Z,77.81
2022-12-25T04:59:06.172Z,77.86
2022-12-25T05:01:33.012Z,78.01
2022-12-25T05:03:59.868Z,77.88
2022-12-25T05:06:27.634Z,77.88
2022-12-25T05:08:54.255Z,77.96
2022-12-25T05:11:21.122Z,77.99
2022-12-25T05:13:47.927Z,78.01
2022-12-25T05:16:20.047Z,78.28
2022-12-25T05:18:49.652Z,78.11
2022-12-25T05:21:16.810Z,78.07
2022-12-25T05:23:48.648Z,77.98
2022-12-25T05:26:18.431Z,78.07
2022-12-25T05:28:45.256Z,78.04
2022-12-25T05:31:11.899Z,78.11
2022-12-25T05:33:38.718Z,77.98
2022-12-25T05:36:07.141Z,77.93
2022-12-25T05:38:33.878Z,77.80
2022-12-25T05:41:01.000Z,77.93
2022-12-25T05:43:28.814Z,77.98
2022-12-25T05:45:55.447Z,77.86
2022-12-25T05:48:22.365Z,77.90
2022-12-25T05:50:49.021Z,77.92
2022-12-25T05:53:16.140Z,78.08
2022-12-25T05:55:44.535Z,78.02
2022-12-25T05:58:12.581Z,78.05
2022-12-25T06:00:40.959Z,78.18
2022-12-25T06:03:07.722Z,78.31
2022-12-25T06:05:34.392Z,78.56
2022-12-25T06:08:01.021Z,78.40
2022-12-25T06:10:27.989Z,78.38
2022-12-25T06:12:54.725Z,78.42
2022-12-25T06:15:21.302Z,78.51
2022-12-25T06:17:48.243Z,78.38
2022-12-25T06:20:14.855Z,78.58
2022-12-25T06:22:41.554Z,78.69
2022-12-25T06:25:08.901Z,78.81
2022-12-25T06:27:35.721Z,78.85
2022-12-25T06:30:02.785Z,78.76
2022-12-25T06:32:29.638Z,78.91
2022-12-25T06:34:56.300Z,78.94
2022-12-25T06:37:22.878Z,78.98
2022-12-25T06:39:49.650Z,78.86
2022-12-25T06:42:16.320Z,79.05
2022-12-25T06:44:42.935Z,79.04
2022-12-25T06:47:09.674Z,79.06
2022-12-25T06:49:36.477Z,79.06
2022-12-25T06:52:03.241Z,79.10
2022-12-25T06:54:30.422Z,78.95
2022-12-25T06:56:57.096Z,79.05
2022-12-25T06:59:23.863Z,78.89
2022-12-25T07:01:56.114Z,78.96
2022-12-25T07:04:28.529Z,78.97
2022-12-25T07:06:55.261Z,78.81
2022-12-25T07:09:21.924Z,78.78
2022-12-25T07:11:48.522Z,78.80
2022-12-25T07:14:24.305Z,78.68
2022-12-25T07:16:51.684Z,78.63
2022-12-25T07:19:19.382Z,78.67
2022-12-25T07:21:46.348Z,78.67
2022-12-25T07:24:18.757Z,78.67
2022-12-25T07:26:45.554Z,78.60
2022-12-25T07:29:12.292Z,78.50
2022-12-25T07:31:39.124Z,78.50
2022-12-25T07:34:05.980Z,78.45
2022-12-25T07:36:32.615Z,78.60
2022-12-25T07:38:59.462Z,78.61
2022-12-25T07:41:26.270Z,78.37
2022-12-25T07:43:53.901Z,78.43
2022-12-25T07:46:22.317Z,78.53
2022-12-25T07:48:49.840Z,78.38
2022-12-25T07:51:16.520Z,78.37
2022-12-25T07:53:43.553Z,78.12
2022-12-25T07:56:12.300Z,78.29
2022-12-25T07:58:38.990Z,78.23
2022-12-25T08:01:12.035Z,78.18
2022-12-25T08:03:39.030Z,78.08
2022-12-25T08:06:08.218Z,77.83
2022-12-25T08:08:36.262Z,77.93
2022-12-25T08:11:03.723Z,77.99
2022-12-25T08:13:32.069Z,77.77
2022-12-25T08:16:04.150Z,77.40
2022-12-25T08:18:32.260Z,77.68
2022-12-25T08:21:04.349Z,77.52
2022-12-25T08:23:33.418Z,77.28
2022-12-25T08:26:05.158Z,77.35
2022-12-25T08:28:34.437Z,77.28
2022-12-25T08:31:07.470Z,77.26
2022-12-25T08:33:34.437Z,77.36
2022-12-25T08:36:07.166Z,77.13
2022-12-25T08:38:33.955Z,77.06
2022-12-25T08:41:00.886Z,77.06
2022-12-25T08:43:27.799Z,77.08
2022-12-25T08:45:54.461Z,76.91
2022-12-25T08:48:21.376Z,76.63
2022-12-25T08:50:50.095Z,76.66
2022-12-25T08:53:17.391Z,76.42
2022-12-25T08:55:44.395Z,76.47
2022-12-25T08:58:11.514Z,76.50
2022-12-25T09:00:38.311Z,76.47
2022-12-25T09:03:05.067Z,76.18
2022-12-25T09:05:39.670Z,76.03
2022-12-25T09:08:06.562Z,75.80
2022-12-25T09:10:36.825Z,75.69
2022-12-25T09:13:04.719Z,75.60
2022-12-25T09:15:31.883Z,75.39
2022-12-25T09:17:58.722Z,75.26
2022-12-25T09:20:25.585Z,75.27
2022-12-25T09:22:52.204Z,74.83
2022-12-25T09:25:18.961Z,74.53
2022-12-25T09:27:45.800Z,74.40
2022-12-25T09:30:12.654Z,74.20
2022-12-25T09:32:42.152Z,74.12
2022-12-25T09:35:09.307Z,73.87
2022-12-25T09:37:36.254Z,73.79
2022-12-25T09:40:03.748Z,73.64
2022-12-25T09:42:32.807Z,73.44
2022-12-25T09:45:03.103Z,73.48
2022-12-25T09:47:34.175Z,72.88
2022-12-25T09:50:07.969Z,73.01
2022-12-25T09:52:52.997Z,73.04
2022-12-25T09:55:25.494Z,72.67
2022-12-25T09:57:56.089Z,72.13
2022-12-25T10:00:25.831Z,72.21
2022-12-25T10:03:34.393Z,72.34
2022-12-25T10:06:13.222Z,72.08
2022-12-25T10:09:05.505Z,71.90
2022-12-25T10:11:49.835Z,71.73
2022-12-25T10:14:22.703Z,71.59
2022-12-25T10:16:52.150Z,71.67
2022-12-25T10:19:33.634Z,71.63
2022-12-25T10:22:11.305Z,71.33
2022-12-25T10:24:47.483Z,71.15
2022-12-25T10:27:19.666Z,71.04
2022-12-25T10:29:52.609Z,70.60
2022-12-25T10:32:19.257Z,70.28
2022-12-25T10:34:45.965Z,70.24
2022-12-25T10:37:13.057Z,70.15
2022-12-25T10:39:45.996Z,70.25
2022-12-25T10:42:27.045Z,70.12
2022-12-25T10:44:56.780Z,70.13
2022-12-25T10:47:26.027Z,70.01
2022-12-25T10:49:54.258Z,69.68
2022-12-25T10:52:24.057Z,69.50
2022-12-25T10:54:51.270Z,69.51
2022-12-25T10:57:21.925Z,69.18
2022-12-25T10:59:57.402Z,69.00
2022-12-25T11:02:24.448Z,68.89
2022-12-25T11:04:52.729Z,68.78
2022-12-25T11:07:19.339Z,68.98
2022-12-25T11:09:57.786Z,68.82
2022-12-25T11:12:42.225Z,68.84
2022-12-25T11:15:40.097Z,68.80
2022-12-25T11:18:23.285Z,68.87
2022-12-25T11:20:58.523Z,68.69
2022-12-25T11:23:27.638Z,68.57
2022-12-25T11:26:15.276Z,68.47
2022-12-25T11:28:44.052Z,68.54
2022-12-25T11:31:20.265Z,68.49
2022-12-25T11:33:57.369Z,68.13
2022-12-25T11:36:27.067Z,68.24
2022-12-25T11:38:53.752Z,68.14
2022-12-25T11:41:25.857Z,68.29
2022-12-25T11:43:59.548Z,67.80
2022-12-25T11:46:38.623Z,67.78
2022-12-25T11:49:08.761Z,67.99
2022-12-25T11:51:41.314Z,68.00
2022-12-25T11:54:17.222Z,67.90
2022-12-25T11:56:43.952Z,67.76
2022-12-25T11:59:21.468Z,67.81
2022-12-25T12:02:03.867Z,67.54
2022-12-25T12:04:43.095Z,67.68
2022-12-25T12:07:30.889Z,67.56
2022-12-25T12:10:15.380Z,67.43
2022-12-25T12:12:50.451Z,67.56
2022-12-25T12:15:49.632Z,67.50
2022-12-25T12:18:29.921Z,67.37
2022-12-25T12:21:11.240Z,67.27
2022-12-25T12:23:56.401Z,67.38
2022-12-25T12:26:31.674Z,67.34
2022-12-25T12:29:01.327Z,67.29
2022-12-25T12:31:42.543Z,67.30
2022-12-25T12:34:23.665Z,67.23
2022-12-25T12:36:54.063Z,67.22
2022-12-25T12:39:25.968Z,67.08
2022-12-25T12:41:53.686Z,66.82
2022-12-25T12:44:27.458Z,66.92
2022-12-25T12:46:56.569Z,66.85
2022-12-25T12:49:34.780Z,66.59
2022-12-25T12:52:12.201Z,66.83
2022-12-25T12:55:09.023Z,66.80
2022-12-25T12:57:39.943Z,66.59
2022-12-25T13:00:19.143Z,66.56
2022-12-25T13:02:58.085Z,66.68
2022-12-25T13:05:54.586Z,66.72
2022-12-25T13:09:07.545Z,66.57
2022-12-25T13:11:43.984Z,66.52
2022-12-25T13:14:17.218Z,66.57
2022-12-25T13:16:47.140Z,66.67
2022-12-25T13:19:18.151Z,66.35
2022-12-25T13:22:00.581Z,66.37
2022-12-25T13:24:32.642Z,66.21
2022-12-25T13:27:00.516Z,66.34
2022-12-25T13:29:37.105Z,66.27
2022-12-25T13:32:07.228Z,66.36
2022-12-25T13:34:34.411Z,66.33
2022-12-25T13:37:13.754Z,66.31
2022-12-25T13:39:56.842Z,66.31
2022-12-25T13:42:31.655Z,66.59
2022-12-25T13:45:18.604Z,66.26
2022-12-25T13:47:51.434Z,66.36
2022-12-25T13:50:31.856Z,66.38
2022-12-25T13:53:11.608Z,66.56
2022-12-25T13:55:39.688Z,66.62
2022-12-25T13:58:07.659Z,66.51
2022-12-25T14:00:53.405Z,66.55
2022-12-25T14:03:23.788Z,66.45
2022-12-25T14:05:59.354Z,66.46
2022-12-25T14:08:29.130Z,66.40
2022-12-25T14:10:56.344Z,66.49
2022-12-25T14:13:27.751Z,66.69
2022-12-25T14:15:56.711Z,66.68
2022-12-25T14:18:24.855Z,66.75
2022-12-25T14:21:15.658Z,67.00
2022-12-25T14:23:46.745Z,66.95
2022-12-25T14:26:16.634Z,66.94
2022-12-25T14:28:48.648Z,66.99
2022-12-25T14:31:15.620Z,66.99
2022-12-25T14:33:42.996Z,66.99
2022-12-25T14:36:13.260Z,67.21
2022-12-25T14:38:42.579Z,67.56
2022-12-25T14:41:33.800Z,67.70
2022-12-25T14:44:03.976Z,67.86
2022-12-25T14:46:32.951Z,68.11
2022-12-25T14:49:23.080Z,68.23
2022-12-25T14:51:50.429Z,68.23
2022-12-25T14:54:22.629Z,68.66
2022-12-25T14:56:51.890Z,68.61
2022-12-25T14:59:25.439Z,68.95
2022-12-25T15:01:56.279Z,68.86
2022-12-25T15:04:23.968Z,68.84
2022-12-25T15:07:07.555Z,68.95
2022-12-25T15:09:35.961Z,69.02
2022-12-25T15:12:03.140Z,69.36
2022-12-25T15:14:31.741Z,69.64
2022-12-25T15:17:01.359Z,69.41
2022-12-25T15:19:38.406Z,69.35
2022-12-25T15:22:06.172Z,69.00
2022-12-25T15:24:33.361Z,69.36
2022-12-25T15:27:00.843Z,69.45
2022-12-25T15:30:00.237Z,69.42
2022-12-25T15:32:24.529Z,69.39
2022-12-25T15:34:51.464Z,69.26
2022-12-25T15:37:19.008Z,69.33
2022-12-25T15:39:46.461Z,69.55
2022-12-25T15:42:18.423Z,69.45
2022-12-25T15:44:45.467Z,69.58
2022-12-25T15:47:14.439Z,69.59
2022-12-25T15:49:41.388Z,69.43
2022-12-25T15:52:11.073Z,69.78
2022-12-25T15:54:38.071Z,70.02
2022-12-25T15:57:07.153Z,70.05
2022-12-25T15:59:34.537Z,70.14
2022-12-25T16:02:03.209Z,70.42
2022-12-25T16:04:31.421Z,70.31
2022-12-25T16:06:58.705Z,70.52
2022-12-25T16:09:26.698Z,70.82
2022-12-25T16:11:53.331Z,70.87
2022-12-25T16:14:20.183Z,70.95
2022-12-25T16:16:47.146Z,71.02
2022-12-25T16:19:13.822Z,71.13
2022-12-25T16:21:44.722Z,71.17
2022-12-25T16:24:12.377Z,71.08
2022-12-25T16:26:39.325Z,71.27
2022-12-25T16:29:07.478Z,71.29
2022-12-25T16:31:35.124Z,71.39
2022-12-25T16:34:01.890Z,71.60
2022-12-25T16:36:28.572Z,71.82
2022-12-25T16:38:56.093Z,71.60
2022-12-25T16:41:22.779Z,71.68
2022-12-25T16:43:49.452Z,71.91
2022-12-25T16:46:19.070Z,71.94
2022-12-25T16:48:46.039Z,72.00
2022-12-25T16:51:15.697Z,72.02
2022-12-25T16:53:43.120Z,72.05
2022-12-25T16:56:12.265Z,72.18
2022-12-25T16:58:39.296Z,71.98
2022-12-25T17:01:11.126Z,72.36
2022-12-25T17:03:39.014Z,72.40
2022-12-25T17:06:16.875Z,72.14
2022-12-25T17:08:43.789Z,72.28
2022-12-25T17:11:11.240Z,72.48
2022-12-25T17:13:38.061Z,72.07
2022-12-25T17:16:22.986Z,71.99
2022-12-25T17:18:57.177Z,72.14
2022-12-25T17:21:25.073Z,72.09
2022-12-25T17:23:54.305Z,71.96
2022-12-25T17:26:25.180Z,72.02
2022-12-25T17:28:52.011Z,72.24
2022-12-25T17:31:18.949Z,72.23
2022-12-25T17:33:46.239Z,72.12
2022-12-25T17:36:16.264Z,72.33
2022-12-25T17:38:43.361Z,72.25
2022-12-25T17:41:12.924Z,72.84
2022-12-25T17:43:41.410Z,73.11
2022-12-25T17:46:11.934Z,73.26
2022-12-25T17:48:38.849Z,73.06
2022-12-25T17:51:08.702Z,73.13
2022-12-25T17:53:37.092Z,73.14
2022-12-25T17:56:04.437Z,73.15
2022-12-25T17:58:31.780Z,72.91
2022-12-25T18:01:04.358Z,73.20
2022-12-25T18:03:31.260Z,73.06
2022-12-25T18:06:00.619Z,73.21
2022-12-25T18:08:32.431Z,73.16
2022-12-25T18:11:05.334Z,73.15
2022-12-25T18:13:32.612Z,73.22
2022-12-25T18:16:04.328Z,73.22
2022-12-25T18:18:31.337Z,73.18
2022-12-25T18:20:58.024Z,73.12
2022-12-25T18:23:25.841Z,73.37
2022-12-25T18:25:53.082Z,73.25
2022-12-25T18:28:19.835Z,73.28
2022-12-25T18:30:47.464Z,73.28
2022-12-25T18:33:14.541Z,73.33
2022-12-25T18:35:42.923Z,73.26
2022-12-25T18:38:10.914Z,73.22
2022-12-25T18:40:42.338Z,73.30
2022-12-25T18:43:09.424Z,73.13
2022-12-25T18:45:36.482Z,73.34
2022-12-25T18:48:05.637Z,73.16
2022-12-25T18:50:37.684Z,73.34
2022-12-25T18:53:05.105Z,73.30
2022-12-25T18:55:32.322Z,73.23
2022-12-25T18:57:59.034Z,73.46
2022-12-25T19:00:26.143Z,73.60
2022-12-25T19:02:58.608Z,73.46
2022-12-25T19:05:26.074Z,73.61
2022-12-25T19:07:53.409Z,73.60
2022-12-25T19:10:20.151Z,73.49
2022-12-25T19:12:46.786Z,73.43
2022-12-25T19:15:13.800Z,73.61
2022-12-25T19:17:40.429Z,73.61
2022-12-25T19:20:07.841Z,73.57
2022-12-25T19:22:34.694Z,73.88
2022-12-25T19:25:01.436Z,73.31
2022-12-25T19:27:27.989Z,73.58
2022-12-25T19:29:54.685Z,73.43
2022-12-25T19:32:21.322Z,73.31
2022-12-25T19:34:48.003Z,73.42
2022-12-25T19:37:15.181Z,73.67
2022-12-25T19:39:46.874Z,73.61
2022-12-25T19:42:16.099Z,73.47
2022-12-25T19:44:44.249Z,73.57
2022-12-25T19:47:11.437Z,73.15
2022-12-25T19:49:39.876Z,73.11
2022-12-25T19:52:07.538Z,73.08
2022-12-25T19:54:34.162Z,73.06
2022-12-25T19:57:00.866Z,72.87
2022-12-25T19:59:27.762Z,72.74
2022-12-25T20:01:54.796Z,72.96
2022-12-25T20:04:21.611Z,72.86
2022-12-25T20:06:48.310Z,72.94
2022-12-25T20:09:21.013Z,73.14
2022-12-25T20:11:48.349Z,72.84
2022-12-25T20:14:16.710Z,73.25
2022-12-25T20:16:44.225Z,73.30
2022-12-25T20:19:14.488Z,73.38
2022-12-25T20:21:41.764Z,73.48
2022-12-25T20:24:11.226Z,73.24
2022-12-25T20:26:39.305Z,73.60
2022-12-25T20:29:06.347Z,73.40
2022-12-25T20:31:34.951Z,73.58
2022-12-25T20:34:06.684Z,73.65
2022-12-25T20:36:37.176Z,73.73
2022-12-25T20:39:06.517Z,73.71
2022-12-25T20:41:33.132Z,73.55
2022-12-25T20:44:02.047Z,73.50
2022-12-25T20:46:28.897Z,73.43
2022-12-25T20:48:55.532Z,73.39
2022-12-25T20:51:24.081Z,73.46
2022-12-25T20:53:51.539Z,73.33
2022-12-25T20:56:21.050Z,73.20
2022-12-25T20:58:47.853Z,73.71
2022-12-25T21:01:17.950Z,73.54
2022-12-25T21:03:45.350Z,73.34
2022-12-25T21:06:12.284Z,73.42
2022-12-25T21:08:39.515Z,73.58
2022-12-25T21:11:07.530Z,73.80
2022-12-25T21:13:36.728Z,73.31
2022-12-25T21:16:22.711Z,73.71
2022-12-25T21:18:51.195Z,73.57
2022-12-25T21:21:18.216Z,73.27
2022-12-25T21:23:45.939Z,73.29
2022-12-25T21:26:21.454Z,73.36
2022-12-25T21:28:50.640Z,73.26
2022-12-25T21:31:18.008Z,73.29
2022-12-25T21:33:54.956Z,73.01
2022-12-25T21:36:27.235Z,73.35
2022-12-25T21:38:56.895Z,73.37
2022-12-25T21:41:24.458Z,73.16
2022-12-25T21:43:51.210Z,73.18
2022-12-25T21:46:18.426Z,73.19
2022-12-25T21:48:45.749Z,73.43
2022-12-25T21:51:34.729Z,73.62
2022-12-25T21:54:02.045Z,73.61
2022-12-25T21:56:30.950Z,73.91
2022-12-25T21:59:05.708Z,73.90
2022-12-25T22:01:32.804Z,73.86
2022-12-25T22:04:04.627Z,74.23
2022-12-25T22:06:50.624Z,74.13
2022-12-25T22:09:17.330Z,74.14
2022-12-25T22:12:02.850Z,74.35
2022-12-25T22:14:51.250Z,74.08
2022-12-25T22:17:46.594Z,74.16
2022-12-25T22:20:20.606Z,74.46
2022-12-25T22:22:47.974Z,74.44
2022-12-25T22:25:15.662Z,74.77
2022-12-25T22:27:44.285Z,74.74
2022-12-25T22:30:14.667Z,74.92
2022-12-25T22:32:41.960Z,75.15
2022-12-25T22:35:09.531Z,75.14
2022-12-25T22:37:36.245Z,74.99
2022-12-25T22:40:04.296Z,74.97
2022-12-25T22:42:31.067Z,75.19
2022-12-25T22:44:57.861Z,75.02
2022-12-25T22:47:24.597Z,75.55
2022-12-25T22:49:51.306Z,75.55
2022-12-25T22:52:18.014Z,75.73
2022-12-25T22:54:44.732Z,75.56
2022-12-25T22:57:11.358Z,75.97
2022-12-25T22:59:38.113Z,75.85
2022-12-25T23:02:05.962Z,75.80
2022-12-25T23:04:32.829Z,75.79
2022-12-25T23:06:59.617Z,75.99
2022-12-25T23:09:29.672Z,75.96
2022-12-25T23:11:58.223Z,76.18
2022-12-25T23:14:41.988Z,76.29
2022-12-25T23:17:31.793Z,76.17
2022-12-25T23:20:18.415Z,75.94
2022-12-25T23:23:05.197Z,76.24
2022-12-25T23:25:50.768Z,76.13
2022-12-25T23:28:37.699Z,76.17
2022-12-25T23:31:04.666Z,76.21
2022-12-25T23:33:31.557Z,76.14
2022-12-25T23:35:58.312Z,76.12
2022-12-25T23:38:24.992Z,76.10
2022-12-25T23:40:52.395Z,76.40
2022-12-25T23:43:18.986Z,76.55
2022-12-25T23:45:45.756Z,76.20
2022-12-25T23:48:12.367Z,76.66
2022-12-25T23:50:38.997Z,76.36
2022-12-25T23:53:05.656Z,76.46
2022-12-25T23:55:33.986Z,76.42
2022-12-25T23:58:00.589Z,76.45
